Latest Weather Observations for Melbourne

IDV60801

Issued at 5:05 pm EDT Thursday 23 October 2014 (issued every 30 minutes, with the page automatically refreshed every 10 minutes)

About weather observations | Map of weather stations | Latest weather observations for VIC | Other Formats
Station Details ID: 086071 Name: MELBOURNE REGIONAL OFFICE Lat: -37.81 Lon: 144.97 Height: 31.15 m
Data from the previous 72 hours. | See also: Recent months at Melbourne

* Apparent temperature (App Temp) for Melbourne is calculated using temperature observations collected at Melbourne and wind observations collected at Melbourne (Olympic Park), as wind observations are not currently provided for Melbourne.

Date/Time
EDT
Temp
°C
App
Temp
°C
Dew
Point
Rel
Hum
%
Delta-T
°C
Wind Press
QNH
hPa
Press
MSL
hPa
Rain
since 9 am
mm
Dir
 
Spd
km/h
Gust
km/h
Spd
kts
Gust
kts
23/05:00pm 20.8 19.6 14.1 65 3.9 WSW 13 - 7 - 1015.4 - 0.0
23/04:30pm 19.8 18.0 13.3 66 3.7 WSW 15 - 8 - 1015.8 - 0.0
23/04:00pm 19.3 17.8 13.1 67 3.5 SW 13 - 7 - 1016.1 - 0.0
23/03:30pm 19.2 17.6 12.8 66 3.6 SSW 13 - 7 - 1016.5 - 0.0
23/03:00pm 18.7 17.1 12.8 68 3.3 SW 13 - 7 - 1017.0 1016.9 0.0
23/02:30pm 18.5 17.3 12.8 69 3.2 SW 11 - 6 - 1017.5 - 0.0
23/02:00pm 18.2 17.0 12.8 71 3.0 SSW 11 - 6 - 1017.9 - 0.0
23/01:30pm 17.2 16.0 12.7 75 2.5 SSW 11 - 6 - 1018.3 - 0.0
23/01:00pm 17.3 15.7 12.8 75 2.5 SSW 13 - 7 - 1018.8 - 0.0
23/12:30pm 17.2 16.2 13.3 78 2.2 SSW 11 - 6 - 1019.0 - 0.0
23/12:00pm 16.7 15.8 12.7 77 2.2 SSW 9 - 5 - 1019.5 1019.5 0.0
23/11:30am 16.4 15.6 12.8 79 2.0 SSW 9 - 5 - 1019.6 - 0.0
23/11:00am 16.3 15.9 12.9 80 1.9 SSW 7 - 4 - 1020.1 - 0.0
23/10:30am 16.3 15.4 12.7 79 2.0 SSW 9 - 5 - 1020.2 - 0.0
23/10:00am 15.8 15.4 12.9 83 1.6 SSW 7 - 4 - 1020.2 - 0.0
23/09:30am 15.4 15.3 13.2 87 1.2 SSW 6 - 3 - 1020.5 - 0.0
23/09:00am 15.3 15.0 13.3 88 1.1 SSW 7 - 4 - 1020.4 1020.4 0.0
23/08:30am 15.3 14.5 12.9 85 1.3 SSE 9 - 5 - 1020.4 - 0.0
23/08:00am 15.9 15.4 12.8 82 1.7 SSE 7 - 4 - 1020.1 - 0.0
23/07:30am 16.2 15.3 12.6 79 2.0 S 9 - 5 - 1019.9 - 0.0
23/07:00am 15.9 15.1 13.0 83 1.6 S 9 - 5 - 1019.6 - 0.0
23/06:30am 15.7 15.5 13.0 84 1.5 S 6 - 3 - 1019.4 - 0.0
23/06:00am 15.8 14.9 13.7 87 1.2 SSW 11 - 6 - 1019.1 1019.1 0.0
23/05:30am 15.9 15.2 13.2 84 1.5 S 9 - 5 - 1018.7 - 0.0
23/05:00am 15.8 15.6 13.1 84 1.5 WSW 6 - 3 - 1018.5 - 0.0
23/04:30am 15.6 15.2 13.1 85 1.4 SW 7 - 4 - 1018.5 - 0.0
23/04:00am 15.7 15.3 13.0 84 1.5 SW 7 - 4 - 1018.3 - 0.0
23/03:30am 15.8 15.4 13.1 84 1.5 SSW 7 - 4 - 1018.6 - 0.0
23/03:00am 15.5 14.8 13.2 86 1.3 SSW 9 - 5 - 1019.0 1019.0 0.0
23/02:30am 15.8 15.1 13.1 84 1.5 SSW 9 - 5 - 1019.1 - 0.0
23/02:00am 15.9 14.8 13.2 84 1.5 SW 11 - 6 - 1019.2 - 0.0
23/01:30am 16.3 15.6 13.3 82 1.7 SSW 9 - 5 - 1019.3 - 0.0
23/01:00am 16.3 16.3 13.6 84 1.5 SW 6 - 3 - 1018.9 - 0.0
23/12:30am 16.2 16.0 13.5 84 1.5 S 7 - 4 - 1018.8 - 0.0
23/12:00am 16.4 15.8 13.6 83 1.6 SSW 9 - 5 - 1018.8 1018.8 0.0
 
Date/Time
EDT
Temp
°C
App
Temp
°C
Dew
Point
Rel
Hum
%
Delta-T
°C
Wind Press
QNH
hPa
Press
MSL
hPa
Rain
since 9 am
mm
Dir
 
Spd
km/h
Gust
km/h
Spd
kts
Gust
kts
22/11:30pm 16.3 14.9 13.4 83 1.6 SSW 13 - 7 - 1018.6 - 0.0
22/11:00pm 17.4 15.7 13.7 79 2.1 S 15 - 8 - 1018.4 - 0.0
22/10:30pm 18.4 16.7 13.7 74 2.7 SSW 15 - 8 - 1018.5 - 0.0
22/10:00pm 20.5 19.2 12.5 60 4.5 SSW 11 - 6 - 1018.3 - 0.0
22/09:30pm 21.4 19.4 12.8 58 4.9 SW 15 - 8 - 1017.9 - 0.0
22/09:00pm 22.6 20.1 12.4 52 5.8 SW 17 - 9 - 1016.8 1016.7 0.0
22/08:30pm 27.0 25.9 11.9 39 8.7 WSW 9 - 5 - 1015.6 - 0.0
22/08:00pm 28.4 26.4 11.6 35 9.7 NNW 13 - 7 - 1014.9 - 0.0
22/07:30pm 28.9 26.0 9.6 30 10.8 N 15 - 8 - 1014.6 - 0.0
22/07:00pm 29.3 26.6 10.2 30 10.8 N 15 - 8 - 1014.1 - 0.0
22/06:30pm 29.9 25.8 7.7 25 12.1 N 19 - 10 - 1014.0 - 0.0
22/06:00pm 29.8 26.3 8.9 27 11.6 N 17 - 9 - 1014.2 1014.1 0.0
22/05:30pm 30.0 26.1 9.5 28 11.5 N 20 - 11 - 1014.5 - 0.0
22/05:00pm 30.4 26.7 9.4 27 11.8 NNW 19 - 10 - 1014.7 - 0.0
22/04:30pm 30.3 26.6 9.5 27 11.7 N 19 - 10 - 1014.6 - 0.0
22/04:00pm 30.7 26.8 8.8 25 12.2 N 19 - 10 - 1014.9 - 0.0
22/03:30pm 31.1 27.1 8.3 24 12.6 NNW 19 - 10 - 1015.0 - 0.0
22/03:00pm 31.0 26.8 7.3 22 12.9 N 19 - 10 - 1015.4 1015.3 0.0
22/02:30pm 31.0 27.2 7.6 23 12.8 N 17 - 9 - 1015.8 - 0.0
22/02:00pm 30.0 26.6 9.2 27 11.6 N 17 - 9 - 1016.2 - 0.0
22/01:30pm 29.2 25.0 9.8 30 10.9 N 22 - 12 - 1016.7 - 0.0
22/01:00pm 29.0 24.9 10.0 30 10.7 N 22 - 12 - 1017.1 - 0.0
22/12:30pm 27.2 22.5 9.2 32 9.9 N 24 - 13 - 1017.7 - 0.0
22/12:00pm 26.4 22.3 10.0 35 9.1 N 22 - 12 - 1018.1 1018.1 0.0
22/11:30am 26.0 22.1 10.9 38 8.5 N 22 - 12 - 1018.8 - 0.0
22/11:00am 24.5 19.6 9.9 39 8.0 N 26 - 14 - 1019.3 - 0.0
22/10:30am 23.7 19.2 10.2 42 7.4 N 24 - 13 - 1019.6 - 0.0
22/10:00am 22.7 17.4 9.8 44 7.0 N 28 - 15 - 1019.7 - 0.0
22/09:30am 22.2 17.7 10.0 46 6.6 N 24 - 13 - 1019.6 - 0.0
22/09:00am 21.2 16.7 10.1 49 6.0 N 24 - 13 - 1019.6 1019.6 0.0
22/08:30am 20.6 16.5 10.0 50 5.7 N 22 - 12 - 1019.5 - 0.0
22/08:00am 19.5 16.0 10.2 55 5.0 N 19 - 10 - 1019.7 - 0.0
22/07:30am 18.7 15.0 9.6 55 4.8 N 19 - 10 - 1019.8 - 0.0
22/07:00am 18.4 15.5 9.7 57 4.6 N 15 - 8 - 1019.8 - 0.0
22/06:30am 18.5 15.6 9.6 56 4.7 N 15 - 8 - 1019.8 - 0.0
22/06:00am 18.5 15.6 9.6 56 4.7 N 15 - 8 - 1019.8 1019.8 0.0
22/05:30am 18.5 16.4 9.6 56 4.7 N 11 - 6 - 1019.6 - 0.0
22/05:00am 18.3 16.2 9.8 57 4.5 NNE 11 - 6 - 1019.5 - 0.0
22/04:30am 18.3 15.9 10.0 58 4.4 NNE 13 - 7 - 1019.5 - 0.0
22/04:00am 18.5 16.5 10.0 57 4.5 NNE 11 - 6 - 1019.6 - 0.0
22/03:30am 18.5 16.4 9.8 57 4.6 NNE 11 - 6 - 1020.0 - 0.0
22/03:00am 17.2 15.3 10.6 65 3.5 NNE 11 - 6 - 1020.3 1020.3 0.0
22/02:30am 17.5 17.9 11.2 66 3.4 CALM 0 - 0 - 1020.5 - 0.0
22/02:00am 17.5 17.3 11.8 69 3.1 N 4 - 2 - 1020.7 - 0.0
22/01:30am 17.9 16.7 11.5 66 3.5 NNE 9 - 5 - 1020.9 - 0.0
22/01:00am 18.7 17.8 11.2 61 4.1 N 7 - 4 - 1021.3 - 0.0
22/12:30am 18.9 18.1 11.0 60 4.3 NNE 6 - 3 - 1021.7 - 0.0
22/12:00am 20.2 19.5 9.9 51 5.5 N 4 - 2 - 1022.1 1022.1 0.0
 
Date/Time
EDT
Temp
°C
App
Temp
°C
Dew
Point
Rel
Hum
%
Delta-T
°C
Wind Press
QNH
hPa
Press
MSL
hPa
Rain
since 9 am
mm
Dir
 
Spd
km/h
Gust
km/h
Spd
kts
Gust
kts
21/11:30pm 19.9 18.9 10.4 54 5.1 ENE 6 - 3 - 1022.3 - 0.0
21/11:00pm 20.5 20.8 10.8 53 5.3 CALM 0 - 0 - 1022.5 - 0.0
21/10:30pm 21.7 21.4 11.4 52 5.7 NE 4 - 2 - 1022.6 - 0.0
21/10:00pm 21.2 21.9 12.3 57 5.0 CALM 0 - 0 - 1022.6 - 0.0
21/09:30pm 22.3 23.0 12.2 52 5.7 CALM 0 - 0 - 1022.4 - 0.0
21/09:00pm 22.5 22.6 11.6 50 6.1 ESE 2 - 1 - 1022.2 1022.2 0.0
21/08:30pm 23.1 22.9 11.7 48 6.4 SSE 4 - 2 - 1022.1 - 0.0
21/08:00pm 23.8 22.9 11.5 46 6.9 ESE 7 - 4 - 1022.1 - 0.0
21/07:30pm 24.4 23.1 11.2 43 7.4 ESE 9 - 5 - 1021.9 - 0.0
21/07:00pm 25.2 23.2 11.4 42 7.8 SE 13 - 7 - 1021.8 - 0.0
21/06:30pm 26.5 25.0 11.8 40 8.4 SSE 11 - 6 - 1021.7 - 0.0
21/06:00pm 28.1 25.9 9.3 30 10.4 S 11 - 6 - 1021.7 1021.7 0.0
21/05:30pm 28.0 26.6 10.9 34 9.7 SE 9 - 5 - 1021.7 - 0.0
21/05:00pm 28.2 26.8 9.4 30 10.4 S 7 - 4 - 1021.9 - 0.0
21/04:30pm 27.9 26.2 7.6 27 10.9 SSW 6 - 3 - 1022.0 - 0.0
21/04:00pm 27.8 25.9 9.0 30 10.3 SSE 9 - 5 - 1022.3 - 0.0
21/03:30pm 27.9 26.0 8.9 30 10.4 SSW 9 - 5 - 1022.8 - 0.0
21/03:00pm 27.2 24.9 9.1 32 9.9 N 11 - 6 - 1023.3 1023.3 0.0
21/02:30pm 26.7 24.6 9.6 34 9.5 NW 11 - 6 - 1023.7 - 0.0
21/02:00pm 26.5 22.9 8.5 32 9.8 NNW 17 - 9 - 1024.3 - 0.0
21/01:30pm 25.4 22.6 8.7 34 9.0 NE 13 - 7 - 1024.7 - 0.0
21/01:00pm 24.4 22.5 9.2 38 8.2 NNE 9 - 5 - 1025.1 - 0.0
21/12:30pm 23.0 20.5 9.7 42 7.2 NE 13 - 7 - 1025.4 - 0.0
21/12:00pm 22.1 19.9 9.4 44 6.8 ENE 11 - 6 - 1025.9 1025.9 0.0
21/11:30am 20.9 18.6 8.9 46 6.3 NE 11 - 6 - 1026.4 - 0.0
21/11:00am 19.8 17.4 8.7 48 5.8 NE 11 - 6 - 1026.7 - 0.0
21/10:30am 18.6 16.9 8.5 52 5.2 ENE 7 - 4 - 1027.0 - 0.0
21/10:00am 17.0 15.0 7.1 52 4.9 ENE 7 - 4 - 1027.4 - 0.0
21/09:30am 15.3 12.9 7.1 58 4.0 NE 9 - 5 - 1027.5 - 0.0
21/09:00am 14.2 12.2 7.2 63 3.4 NE 7 - 4 - 1027.5 1027.5 0.0
21/08:30am 12.5 10.1 7.1 69 2.6 NNE 9 - 5 - 1027.5 - 0.0
21/08:00am 11.0 8.4 6.3 73 2.2 NE 9 - 5 - 1027.2 - 0.0
21/07:30am 9.2 6.6 5.9 80 1.5 NNE 9 - 5 - 1027.0 - 0.0
21/07:00am 8.5 5.8 5.8 83 1.2 NNE 9 - 5 - 1026.7 - 0.0
21/06:30am 8.4 5.7 5.7 83 1.2 NNE 9 - 5 - 1026.7 - 0.0
21/06:00am 8.6 5.6 6.0 84 1.2 NNE 11 - 6 - 1026.3 1026.3 0.0
21/05:30am 9.1 6.2 6.3 83 1.3 NNE 11 - 6 - 1026.1 - 0.0
21/05:00am 9.0 7.4 6.4 84 1.2 NNE 4 - 2 - 1026.2 - 0.0
21/04:30am 9.4 7.3 6.6 83 1.3 NNE 7 - 4 - 1026.1 - 0.0
21/04:00am 9.6 8.8 6.6 81 1.4 CALM 0 - 0 - 1026.2 - 0.0
21/03:30am 10.0 9.2 6.6 79 1.6 CALM 0 - 0 - 1026.2 - 0.0
21/03:00am 10.0 9.3 6.8 80 1.5 CALM 0 - 0 - 1026.4 1026.4 0.0
21/02:30am 10.2 9.1 6.8 79 1.6 ENE 2 - 1 - 1026.4 - 0.0
21/02:00am 11.0 10.2 6.7 75 2.0 CALM 0 - 0 - 1026.6 - 0.0
21/01:30am 11.3 10.5 6.6 73 2.2 CALM 0 - 0 - 1026.8 - 0.0
21/01:00am 11.5 10.3 6.6 72 2.3 ESE 2 - 1 - 1027.0 - 0.0
21/12:30am 11.9 10.4 6.8 71 2.4 E 4 - 2 - 1027.0 - 0.0
21/12:00am 12.8 10.9 6.5 65 3.0 E 6 - 3 - 1027.1 1027.1 0.0
 
Date/Time
EDT
Temp
°C
App
Temp
°C
Dew
Point
Rel
Hum
%
Delta-T
°C
Wind Press
QNH
hPa
Press
MSL
hPa
Rain
since 9 am
mm
Dir
 
Spd
km/h
Gust
km/h
Spd
kts
Gust
kts
20/11:30pm 13.1 11.1 6.3 63 3.2 ESE 6 - 3 - 1027.3 - 0.0
20/11:00pm 13.4 11.8 6.5 63 3.3 ESE 4 - 2 - 1027.3 - 0.0
20/10:30pm 13.7 11.2 6.4 61 3.5 SE 9 - 5 - 1027.3 - 0.0
20/10:00pm 14.2 12.0 6.2 58 3.8 SSE 7 - 4 - 1027.4 - 0.0
20/09:30pm 14.7 12.2 6.6 58 3.9 SSE 9 - 5 - 1027.3 - 0.0
20/09:00pm 15.2 11.9 6.5 56 4.2 SSE 13 - 7 - 1027.3 1027.3 0.0
20/08:30pm 15.8 12.5 6.5 54 4.5 SSE 13 - 7 - 1026.9 - 0.0
20/08:00pm 16.6 12.3 6.8 52 4.8 SSE 19 - 10 - 1026.7 - 0.0
20/07:30pm 17.3 14.1 6.8 50 5.2 SE 13 - 7 - 1026.6 - 0.0
20/07:00pm 18.4 13.8 6.5 45 5.9 S 20 - 11 - 1026.4 - 0.0
20/06:30pm 19.5 15.0 5.9 41 6.7 SE 19 - 10 - 1026.3 - 0.0
20/06:00pm 20.6 16.3 5.3 36 7.5 SSE 17 - 9 - 1026.4 1026.4 0.0
20/05:30pm 20.5 15.6 3.9 33 8.0 SSE 19 - 10 - 1026.5 - 0.0

Other Formats:

Comma delimited format used in spreadsheet applications
http://www.bom.gov.au/fwo/IDV60801/IDV60801.94868.axf

JavaScript Object Notation format (JSON) in row-major order
http://www.bom.gov.au/fwo/IDV60801/IDV60801.94868.json